createdAt,value
2023-04-16T00:00:29.661Z,711.7500
2023-04-16T00:01:33.561Z,715.4167
2023-04-16T00:02:37.624Z,716.0833
2023-04-16T00:03:41.815Z,716.3333
2023-04-16T00:04:45.863Z,721.0833
2023-04-16T00:05:49.746Z,714.5000
2023-04-16T00:06:53.655Z,711.7500
2023-04-16T00:07:57.530Z,715.7500
2023-04-16T00:09:01.414Z,714.0833
2023-04-16T00:10:05.333Z,715.1667
2023-04-16T00:11:09.193Z,722.6667
2023-04-16T00:12:13.083Z,713.2500
2023-04-16T00:13:16.985Z,713.3333
2023-04-16T00:14:20.877Z,721.1667
2023-04-16T00:15:24.784Z,714.3333
2023-04-16T00:16:28.995Z,711.5833
2023-04-16T00:17:32.963Z,717.6667
2023-04-16T00:18:36.841Z,711.5833
2023-04-16T00:19:40.742Z,709.3333
2023-04-16T00:20:44.615Z,712.0833
2023-04-16T00:21:48.754Z,713.5833
2023-04-16T00:22:52.652Z,715.1667
2023-04-16T00:23:56.745Z,714.0833
2023-04-16T00:25:00.646Z,711.7500
2023-04-16T00:26:04.555Z,716.1667
2023-04-16T00:27:08.440Z,712.0000
2023-04-16T00:28:12.350Z,706.7500
2023-04-16T00:29:16.236Z,706.7500
2023-04-16T00:30:20.132Z,711.0000
2023-04-16T00:31:24.350Z,717.9167
2023-04-16T00:32:28.379Z,716.6667
2023-04-16T00:33:32.287Z,717.1667
2023-04-16T00:34:32.496Z,712.4545
2023-04-16T00:35:36.392Z,718.0833
2023-04-16T00:36:40.329Z,716.5000
2023-04-16T00:37:44.206Z,718.6667
2023-04-16T00:38:48.320Z,716.0833
2023-04-16T00:39:52.231Z,714.3333
2023-04-16T00:40:56.100Z,715.5000
2023-04-16T00:41:59.995Z,709.7500
2023-04-16T00:43:03.875Z,712.6667
2023-04-16T00:44:07.791Z,715.7500
2023-04-16T00:45:11.676Z,715.6667
2023-04-16T00:46:15.610Z,714.5000
2023-04-16T00:47:19.484Z,718.7500
2023-04-16T00:48:23.378Z,713.0833
2023-04-16T00:49:27.278Z,713.9167
2023-04-16T00:50:31.160Z,720.0833
2023-04-16T00:51:35.060Z,714.6667
2023-04-16T00:52:38.936Z,717.9167
2023-04-16T00:53:42.838Z,709.4167
2023-04-16T00:54:46.720Z,709.2500
2023-04-16T00:55:50.634Z,706.5000
2023-04-16T00:56:54.503Z,706.5833
2023-04-16T00:57:58.410Z,712.2500
2023-04-16T00:59:02.328Z,703.0000
2023-04-16T01:00:06.227Z,711.1667
2023-04-16T01:01:10.138Z,706.9167
2023-04-16T01:02:14.108Z,707.0000
2023-04-16T01:03:18.038Z,710.8333
2023-04-16T01:04:22.020Z,713.1667
2023-04-16T01:05:25.898Z,710.0833
2023-04-16T01:06:29.804Z,712.9167
2023-04-16T01:07:33.690Z,712.5833
2023-04-16T01:08:37.597Z,713.0000
2023-04-16T01:09:41.520Z,711.5000
2023-04-16T01:10:45.410Z,715.4167
2023-04-16T01:11:49.310Z,717.5833
2023-04-16T01:12:53.202Z,710.3333
2023-04-16T01:13:57.105Z,711.6667
2023-04-16T01:15:00.995Z,715.7500
2023-04-16T01:16:04.960Z,716.5833
2023-04-16T01:17:09.039Z,715.2500
2023-04-16T01:18:12.967Z,716.9167
2023-04-16T01:19:16.814Z,715.0833
2023-04-16T01:20:20.713Z,706.3333
2023-04-16T01:21:24.588Z,712.4167
2023-04-16T01:22:28.507Z,714.3333
2023-04-16T01:23:32.371Z,719.3333
2023-04-16T01:24:36.287Z,710.3333
2023-04-16T01:25:40.157Z,713.6667
2023-04-16T01:26:44.058Z,714.5000
2023-04-16T01:27:47.936Z,719.5833
2023-04-16T01:28:52.157Z,711.3333
2023-04-16T01:29:56.052Z,713.4167
2023-04-16T01:30:59.946Z,706.6667
2023-04-16T01:32:04.139Z,707.0833
2023-04-16T01:33:08.031Z,710.0000
2023-04-16T01:34:11.937Z,715.7500
2023-04-16T01:35:15.821Z,716.9167
2023-04-16T01:36:19.731Z,713.8333
2023-04-16T01:37:23.617Z,710.9167
2023-04-16T01:38:27.515Z,713.1667
2023-04-16T01:39:31.602Z,715.0000
2023-04-16T01:40:35.511Z,713.2500
2023-04-16T01:41:39.406Z,714.9167
2023-04-16T01:42:43.309Z,714.8333
2023-04-16T01:43:47.423Z,714.5000
2023-04-16T01:44:51.308Z,716.5833
2023-04-16T01:45:55.207Z,710.3333
2023-04-16T01:46:59.140Z,716.2500
2023-04-16T01:48:03.084Z,713.1667
2023-04-16T01:49:07.047Z,719.0000
2023-04-16T01:50:11.012Z,713.6667
2023-04-16T01:51:14.913Z,712.0000
2023-04-16T01:52:18.795Z,716.5833
2023-04-16T01:53:22.692Z,714.6667
2023-04-16T01:54:26.805Z,716.3333
2023-04-16T01:55:30.710Z,718.1667
2023-04-16T01:56:34.588Z,717.0833
2023-04-16T01:57:38.509Z,716.0833
2023-04-16T01:58:42.379Z,713.8333
2023-04-16T01:59:46.277Z,716.0000
2023-04-16T02:00:50.167Z,718.1667
2023-04-16T02:01:54.099Z,718.6667
2023-04-16T02:02:58.069Z,716.6667
2023-04-16T02:04:02.339Z,710.4167
2023-04-16T02:05:07.097Z,716.2500
2023-04-16T02:06:07.810Z,715.5000
2023-04-16T02:07:11.730Z,716.0000
2023-04-16T02:08:15.605Z,714.5833
2023-04-16T02:09:19.718Z,722.6667
2023-04-16T02:10:31.156Z,715.9167
2023-04-16T02:11:24.457Z,716.9000
2023-04-16T02:12:28.363Z,716.6667
2023-04-16T02:13:32.281Z,717.9167
2023-04-16T02:14:36.475Z,713.1667
2023-04-16T02:15:40.347Z,714.0833
2023-04-16T02:16:40.877Z,714.8182
2023-04-16T02:17:44.854Z,714.7500
2023-04-16T02:18:48.718Z,716.5833
2023-04-16T02:19:52.646Z,714.8333
2023-04-16T02:20:56.524Z,713.5833
2023-04-16T02:22:00.428Z,715.4167
2023-04-16T02:23:04.289Z,715.5000
2023-04-16T02:24:08.203Z,714.5000
2023-04-16T02:25:12.076Z,713.0833
2023-04-16T02:26:15.980Z,717.2500
2023-04-16T02:27:19.884Z,714.4167
2023-04-16T02:28:23.758Z,715.0000
2023-04-16T02:29:27.817Z,713.5833
2023-04-16T02:30:31.719Z,710.0833
2023-04-16T02:31:35.667Z,713.0000
2023-04-16T02:32:39.574Z,715.5000
2023-04-16T02:33:43.478Z,710.7500
2023-04-16T02:34:47.381Z,712.2500
2023-04-16T02:35:51.271Z,716.9167
2023-04-16T02:36:55.171Z,712.3333
2023-04-16T02:37:59.080Z,712.7500
2023-04-16T02:39:02.949Z,713.2500
2023-04-16T02:40:06.832Z,716.9167
2023-04-16T02:41:10.736Z,717.7500
2023-04-16T02:42:14.626Z,719.1667
2023-04-16T02:43:18.524Z,718.8333
2023-04-16T02:44:22.652Z,715.5833
2023-04-16T02:45:26.538Z,714.5000
2023-04-16T02:46:30.912Z,715.5000
2023-04-16T02:47:34.823Z,710.0000
2023-04-16T02:48:38.731Z,711.4167
2023-04-16T02:49:42.622Z,715.5833
2023-04-16T02:50:46.509Z,717.5833
2023-04-16T02:51:50.615Z,713.3333
2023-04-16T02:52:54.509Z,714.5833
2023-04-16T02:53:58.394Z,711.5000
2023-04-16T02:55:02.307Z,718.7500
2023-04-16T02:56:06.210Z,715.5000
2023-04-16T02:57:10.340Z,712.0833
2023-04-16T02:58:14.235Z,717.7500
2023-04-16T02:59:18.421Z,723.0833
2023-04-16T03:00:22.334Z,710.9167
2023-04-16T03:01:26.277Z,713.0833
2023-04-16T03:02:30.263Z,714.9167
2023-04-16T03:03:34.143Z,718.5833
2023-04-16T03:04:38.458Z,719.7500
2023-04-16T03:05:42.493Z,717.1667
2023-04-16T03:06:46.381Z,716.0000
2023-04-16T03:07:50.268Z,718.5833
2023-04-16T03:08:54.151Z,724.0833
2023-04-16T03:09:58.054Z,716.6667
2023-04-16T03:11:01.934Z,717.4167
2023-04-16T03:12:06.035Z,715.6667
2023-04-16T03:13:09.930Z,715.8333
2023-04-16T03:14:14.030Z,717.9167
2023-04-16T03:15:17.969Z,715.1667
2023-04-16T03:16:22.104Z,712.2500
2023-04-16T03:17:26.028Z,711.3333
2023-04-16T03:18:29.899Z,716.7500
2023-04-16T03:19:34.004Z,712.7500
2023-04-16T03:20:37.923Z,711.7500
2023-04-16T03:21:41.837Z,712.5833
2023-04-16T03:22:45.749Z,711.5833
2023-04-16T03:23:49.647Z,711.5833
2023-04-16T03:24:53.558Z,712.7500
2023-04-16T03:25:57.486Z,711.6667
2023-04-16T03:27:01.609Z,712.4167
2023-04-16T03:28:05.513Z,715.7500
2023-04-16T03:29:05.860Z,714.5455
2023-04-16T03:30:09.758Z,714.2500
2023-04-16T03:31:13.931Z,715.6667
2023-04-16T03:32:17.858Z,715.4167
2023-04-16T03:33:21.736Z,715.5833
2023-04-16T03:34:25.626Z,713.7500
2023-04-16T03:35:29.532Z,716.2500
2023-04-16T03:36:33.674Z,713.1667
2023-04-16T03:37:37.573Z,715.8333
2023-04-16T03:38:41.484Z,715.4167
2023-04-16T03:39:45.623Z,715.0833
2023-04-16T03:40:49.486Z,713.9167
2023-04-16T03:41:53.414Z,717.2500
2023-04-16T03:42:57.300Z,719.9167
2023-04-16T03:44:01.405Z,721.8333
2023-04-16T03:45:05.316Z,718.7500
2023-04-16T03:46:09.243Z,721.2500
2023-04-16T03:47:13.367Z,719.2500
2023-04-16T03:48:17.267Z,717.1667
2023-04-16T03:49:21.358Z,717.5000
2023-04-16T03:50:25.296Z,718.9167
2023-04-16T03:51:29.149Z,716.0000
2023-04-16T03:52:33.051Z,718.2500
2023-04-16T03:53:36.921Z,718.2500
2023-04-16T03:54:40.824Z,715.5000
2023-04-16T03:55:44.692Z,718.5833
2023-04-16T03:56:48.892Z,717.9167
2023-04-16T03:57:52.811Z,716.9167
2023-04-16T03:58:56.699Z,719.6667
2023-04-16T04:00:00.569Z,718.1667
2023-04-16T04:01:04.480Z,722.5833
2023-04-16T04:02:08.461Z,716.8333
2023-04-16T04:03:12.654Z,718.4167
2023-04-16T04:04:16.911Z,721.0833
2023-04-16T04:05:20.821Z,719.2500
2023-04-16T04:06:24.744Z,719.3333
2023-04-16T04:07:28.632Z,724.0000
2023-04-16T04:08:32.532Z,719.9167
2023-04-16T04:09:36.637Z,722.6667
2023-04-16T04:10:40.530Z,723.0833
2023-04-16T04:11:44.693Z,721.6667
2023-04-16T04:12:48.568Z,717.8333
2023-04-16T04:13:52.465Z,718.1667
2023-04-16T04:14:56.349Z,718.4167
2023-04-16T04:16:00.260Z,715.3333
2023-04-16T04:17:04.143Z,713.5833
2023-04-16T04:18:08.044Z,708.9167
2023-04-16T04:19:12.338Z,708.0000
2023-04-16T04:20:16.243Z,699.8333
2023-04-16T04:21:20.153Z,693.6667
2023-04-16T04:22:24.067Z,683.7500
2023-04-16T04:23:27.948Z,679.4167
2023-04-16T04:24:28.291Z,681.0909
2023-04-16T04:25:32.172Z,684.5833
2023-04-16T04:26:36.132Z,689.5000
2023-04-16T04:27:39.971Z,688.5000
2023-04-16T04:28:43.847Z,688.1667
2023-04-16T04:29:47.958Z,690.5000
2023-04-16T04:30:51.845Z,688.1667
2023-04-16T04:31:55.993Z,688.7500
2023-04-16T04:32:59.945Z,689.1667
2023-04-16T04:34:04.128Z,687.0833
2023-04-16T04:35:08.013Z,690.2500
2023-04-16T04:36:11.891Z,689.5833
2023-04-16T04:37:15.791Z,687.7500
2023-04-16T04:38:19.675Z,689.9167
2023-04-16T04:39:23.555Z,692.4167
2023-04-16T04:40:27.478Z,693.6667
2023-04-16T04:41:31.585Z,693.3333
2023-04-16T04:42:35.479Z,695.0833
2023-04-16T04:43:39.391Z,692.9167
2023-04-16T04:44:43.301Z,689.0000
2023-04-16T04:45:47.300Z,691.7500
2023-04-16T04:46:51.459Z,690.9167
2023-04-16T04:47:55.391Z,692.1667
2023-04-16T04:48:59.502Z,690.1667
2023-04-16T04:50:03.449Z,691.9167
2023-04-16T04:51:07.333Z,687.8333
2023-04-16T04:52:11.243Z,690.1667
2023-04-16T04:53:15.200Z,690.3333
2023-04-16T04:54:19.060Z,691.0833
2023-04-16T04:55:22.968Z,689.5000
2023-04-16T04:56:26.907Z,690.2500
2023-04-16T04:57:30.809Z,688.5000
2023-04-16T04:58:34.922Z,693.7500
2023-04-16T04:59:38.812Z,690.3333
2023-04-16T05:00:42.691Z,693.1667
2023-04-16T05:01:46.881Z,689.3333
2023-04-16T05:02:50.906Z,688.5833
2023-04-16T05:03:55.139Z,686.6667
2023-04-16T05:04:59.044Z,688.5833
2023-04-16T05:06:02.930Z,687.7500
2023-04-16T05:07:06.827Z,689.0000
2023-04-16T05:08:10.710Z,683.2500
2023-04-16T05:09:14.600Z,684.8333
2023-04-16T05:10:18.482Z,683.1667
2023-04-16T05:11:22.589Z,688.3333
2023-04-16T05:12:26.480Z,688.4167
2023-04-16T05:13:30.367Z,690.5833
2023-04-16T05:14:34.257Z,691.5000
2023-04-16T05:15:38.131Z,692.3333
2023-04-16T05:16:42.019Z,693.0833
2023-04-16T05:17:45.909Z,694.6667
2023-04-16T05:18:49.838Z,691.8333
2023-04-16T05:19:53.756Z,693.7500
2023-04-16T05:20:57.619Z,694.5000
2023-04-16T05:22:01.493Z,693.6667
2023-04-16T05:23:05.405Z,696.9167
2023-04-16T05:24:09.706Z,699.5833
2023-04-16T05:25:13.591Z,697.7500
2023-04-16T05:26:17.688Z,696.4167
2023-04-16T05:27:21.561Z,695.0000
2023-04-16T05:28:25.458Z,695.5000
2023-04-16T05:29:29.341Z,693.2500
2023-04-16T05:30:33.266Z,696.0833
2023-04-16T05:31:37.334Z,698.7500
2023-04-16T05:32:41.267Z,698.8333
2023-04-16T05:33:45.421Z,698.4167
2023-04-16T05:34:49.291Z,697.1667
2023-04-16T05:35:53.204Z,699.6667
2023-04-16T05:36:57.105Z,698.8333
2023-04-16T05:38:01.007Z,696.9167
2023-04-16T05:39:05.148Z,698.3333
2023-04-16T05:40:09.031Z,697.0833
2023-04-16T05:41:12.929Z,696.5833
2023-04-16T05:42:16.848Z,698.0000
2023-04-16T05:43:20.736Z,698.9167
2023-04-16T05:44:24.661Z,698.7500
2023-04-16T05:45:28.545Z,696.0000
2023-04-16T05:46:32.771Z,696.7500
2023-04-16T05:47:36.738Z,695.7500
2023-04-16T05:48:40.813Z,703.2500
2023-04-16T05:49:44.858Z,700.1667
2023-04-16T05:50:48.729Z,701.4167
2023-04-16T05:51:52.635Z,701.9167
2023-04-16T05:52:56.537Z,704.0000
2023-04-16T05:54:00.679Z,700.6667
2023-04-16T05:55:04.602Z,703.0000
2023-04-16T05:56:08.725Z,700.4167
2023-04-16T05:57:12.624Z,702.5833
2023-04-16T05:58:16.496Z,698.9167
2023-04-16T05:59:20.385Z,697.5000
2023-04-16T06:00:24.280Z,702.3333
2023-04-16T06:01:28.425Z,702.9167
2023-04-16T06:02:32.427Z,705.5000
2023-04-16T06:03:36.720Z,699.5000
2023-04-16T06:04:40.634Z,701.5833
2023-04-16T06:05:44.571Z,704.2500
2023-04-16T06:06:48.423Z,701.3333
2023-04-16T06:07:52.323Z,706.6667
2023-04-16T06:08:56.207Z,708.0833
2023-04-16T06:10:00.110Z,705.2500
2023-04-16T06:11:04.232Z,705.7500
2023-04-16T06:12:08.158Z,707.0000
2023-04-16T06:13:12.054Z,704.6667
2023-04-16T06:14:16.165Z,709.0000
2023-04-16T06:15:20.069Z,705.8333
2023-04-16T06:16:24.015Z,704.3333
2023-04-16T06:17:27.915Z,704.0000
2023-04-16T06:18:32.030Z,703.0000
2023-04-16T06:19:35.916Z,710.4167
2023-04-16T06:20:39.824Z,706.5000
2023-04-16T06:21:43.730Z,709.0833
2023-04-16T06:22:47.603Z,708.4167
2023-04-16T06:23:51.853Z,711.5000
2023-04-16T06:24:55.746Z,707.0833
2023-04-16T06:25:59.624Z,710.9167
2023-04-16T06:27:03.664Z,706.9167
2023-04-16T06:28:07.563Z,701.3333
2023-04-16T06:29:11.765Z,707.9167
2023-04-16T06:30:15.724Z,708.9167
2023-04-16T06:31:19.879Z,704.4167
2023-04-16T06:32:23.816Z,706.5000
2023-04-16T06:33:27.725Z,706.2500
2023-04-16T06:34:31.623Z,710.7500
2023-04-16T06:35:35.509Z,708.2500
2023-04-16T06:36:39.408Z,713.9167
2023-04-16T06:37:43.306Z,713.7500
2023-04-16T06:38:47.178Z,717.5833
2023-04-16T06:39:51.053Z,712.5000
2023-04-16T06:40:55.158Z,711.1667
2023-04-16T06:41:59.055Z,715.0000
2023-04-16T06:43:02.935Z,717.0000
2023-04-16T06:44:06.830Z,711.0000
2023-04-16T06:45:10.699Z,716.2500
2023-04-16T06:46:14.828Z,709.4167
2023-04-16T06:47:18.766Z,711.1667
2023-04-16T06:48:22.910Z,709.7500
2023-04-16T06:49:26.814Z,713.1667
2023-04-16T06:50:30.696Z,710.7500
2023-04-16T06:51:34.587Z,710.6667
2023-04-16T06:52:38.490Z,708.5833
2023-04-16T06:53:42.616Z,708.4167
2023-04-16T06:54:46.506Z,710.4167
2023-04-16T06:55:50.390Z,708.5833
2023-04-16T06:56:54.308Z,708.9167
2023-04-16T06:57:58.198Z,707.3333
2023-04-16T06:59:02.344Z,708.0000
2023-04-16T07:00:06.249Z,707.4167
2023-04-16T07:01:10.405Z,701.6667
2023-04-16T07:02:14.380Z,707.1667
2023-04-16T07:03:18.518Z,706.4167
2023-04-16T07:04:22.491Z,707.3333
2023-04-16T07:05:26.377Z,710.0000
2023-04-16T07:06:30.286Z,710.8333
2023-04-16T07:07:34.184Z,714.1667
2023-04-16T07:08:38.418Z,712.2500
2023-04-16T07:09:42.301Z,712.7500
2023-04-16T07:10:46.415Z,705.0833
2023-04-16T07:11:50.322Z,709.0000
2023-04-16T07:12:54.209Z,712.0000
2023-04-16T07:13:58.120Z,711.8333
2023-04-16T07:15:01.986Z,710.4167
2023-04-16T07:16:05.910Z,710.6667
2023-04-16T07:17:09.778Z,708.6667
2023-04-16T07:18:13.958Z,706.3333
2023-04-16T07:19:17.998Z,712.9167
2023-04-16T07:20:21.895Z,709.7500
2023-04-16T07:21:25.793Z,712.1667
2023-04-16T07:22:29.696Z,710.3333
2023-04-16T07:23:33.633Z,710.0833
2023-04-16T07:24:37.513Z,708.2500
2023-04-16T07:25:41.481Z,708.5000
2023-04-16T07:26:45.384Z,707.8333
2023-04-16T07:27:49.273Z,709.1667
2023-04-16T07:28:53.182Z,710.4167
2023-04-16T07:29:57.084Z,708.2500
2023-04-16T07:31:00.974Z,709.0000
2023-04-16T07:32:04.990Z,707.0833
2023-04-16T07:33:09.050Z,708.2500
2023-04-16T07:34:12.913Z,703.2500
2023-04-16T07:35:16.823Z,705.7500
2023-04-16T07:36:20.712Z,706.0000
2023-04-16T07:37:24.615Z,707.5833
2023-04-16T07:38:28.754Z,705.1667
2023-04-16T07:39:32.688Z,706.4167
2023-04-16T07:40:36.704Z,702.6667
2023-04-16T07:41:40.591Z,702.0833
2023-04-16T07:42:44.452Z,700.5000
2023-04-16T07:43:48.334Z,704.6667
2023-04-16T07:44:52.240Z,704.7500
2023-04-16T07:45:56.490Z,707.6667
2023-04-16T07:47:00.464Z,705.2500
2023-04-16T07:48:04.774Z,704.5000
2023-04-16T07:49:08.876Z,704.8333
2023-04-16T07:50:12.863Z,703.5000
2023-04-16T07:51:16.759Z,704.9167
2023-04-16T07:52:20.668Z,704.7500
2023-04-16T07:53:24.555Z,700.8333
2023-04-16T07:54:29.175Z,701.2500
2023-04-16T07:55:33.108Z,703.0833
2023-04-16T07:56:37.052Z,702.6667
2023-04-16T07:57:40.917Z,704.5833
2023-04-16T07:58:44.834Z,702.4167
2023-04-16T07:59:48.705Z,698.4167
2023-04-16T08:00:52.815Z,702.4167
2023-04-16T08:01:56.727Z,700.5000
2023-04-16T08:03:00.883Z,699.9167
2023-04-16T08:04:04.995Z,697.0833
2023-04-16T08:05:08.959Z,699.2500
2023-04-16T08:06:12.838Z,704.6667
2023-04-16T08:07:16.753Z,707.5833
2023-04-16T08:08:16.915Z,707.8182
2023-04-16T08:09:20.803Z,703.4167
2023-04-16T08:10:24.899Z,704.0833
2023-04-16T08:11:28.816Z,704.4167
2023-04-16T08:12:32.715Z,707.5000
2023-04-16T08:13:36.614Z,708.1667
2023-04-16T08:14:40.482Z,704.4167
2023-04-16T08:15:44.634Z,702.0000
2023-04-16T08:16:48.533Z,696.2500
2023-04-16T08:17:52.756Z,700.0833
2023-04-16T08:18:56.609Z,697.5000
2023-04-16T08:20:00.506Z,701.3333
2023-04-16T08:21:04.392Z,699.4167
2023-04-16T08:22:08.316Z,692.4167
2023-04-16T08:23:12.195Z,696.3333
2023-04-16T08:24:16.127Z,700.8333
2023-04-16T08:25:20.000Z,697.1667
2023-04-16T08:26:24.002Z,695.5833
2023-04-16T08:27:27.901Z,697.0833
2023-04-16T08:28:32.024Z,700.0000
2023-04-16T08:29:35.935Z,699.5000
2023-04-16T08:30:39.841Z,696.6667
2023-04-16T08:31:43.775Z,698.1667
2023-04-16T08:32:50.045Z,696.0000
2023-04-16T08:33:48.852Z,700.1818
2023-04-16T08:34:52.753Z,700.0000
2023-04-16T08:35:56.991Z,702.3333
2023-04-16T08:37:00.994Z,702.5833
2023-04-16T08:38:04.912Z,705.9167
2023-04-16T08:39:08.913Z,707.6667
2023-04-16T08:40:13.083Z,702.0000
2023-04-16T08:41:17.218Z,704.0833
2023-04-16T08:42:21.131Z,706.0000
2023-04-16T08:43:25.013Z,699.8333
2023-04-16T08:44:28.939Z,703.4167
2023-04-16T08:45:33.118Z,706.5000
2023-04-16T08:46:37.024Z,705.7500
2023-04-16T08:47:40.911Z,705.2500
2023-04-16T08:48:44.787Z,703.5000
2023-04-16T08:49:48.721Z,705.0833
2023-04-16T08:50:52.580Z,706.9167
2023-04-16T08:51:54.080Z,702.9091
2023-04-16T08:52:58.213Z,704.5000
2023-04-16T08:54:02.310Z,706.2500
2023-04-16T08:55:06.221Z,708.9167
2023-04-16T08:56:10.104Z,706.6667
2023-04-16T08:57:13.987Z,704.1667
2023-04-16T08:58:18.202Z,704.5833
2023-04-16T08:59:22.089Z,706.5833
2023-04-16T09:00:26.218Z,702.2500
2023-04-16T09:01:30.145Z,700.1667
2023-04-16T09:02:34.134Z,705.2500
2023-04-16T09:03:38.345Z,701.2500
2023-04-16T09:04:42.383Z,708.5000
2023-04-16T09:05:46.280Z,709.9167
2023-04-16T09:06:50.163Z,708.9167
2023-04-16T09:07:54.059Z,713.9167
2023-04-16T09:08:57.953Z,711.2500
2023-04-16T09:10:01.914Z,707.5833
2023-04-16T09:11:05.814Z,708.5000
2023-04-16T09:12:09.700Z,708.8333
2023-04-16T09:13:13.596Z,706.0833
2023-04-16T09:14:17.482Z,707.8333
2023-04-16T09:15:21.598Z,705.3333
2023-04-16T09:16:25.534Z,702.8333
2023-04-16T09:17:29.497Z,710.2500
2023-04-16T09:18:33.372Z,710.9167
2023-04-16T09:19:37.270Z,709.1667
2023-04-16T09:20:41.320Z,707.4167
2023-04-16T09:21:45.207Z,706.7500
2023-04-16T09:22:49.104Z,703.5000
2023-04-16T09:23:52.984Z,702.4167
2023-04-16T09:24:56.885Z,708.6667
2023-04-16T09:26:00.962Z,706.5833
2023-04-16T09:27:04.862Z,708.2500
2023-04-16T09:28:09.016Z,709.9167
2023-04-16T09:29:12.887Z,713.7500
2023-04-16T09:30:16.793Z,716.9167
2023-04-16T09:31:21.013Z,711.0833
2023-04-16T09:32:24.911Z,712.5000
2023-04-16T09:33:28.808Z,712.0000
2023-04-16T09:34:32.703Z,712.6667
2023-04-16T09:35:36.849Z,713.7500
2023-04-16T09:36:40.737Z,710.8333
2023-04-16T09:37:44.875Z,716.9167
2023-04-16T09:38:48.751Z,713.1667
2023-04-16T09:39:52.655Z,709.9167
2023-04-16T09:40:56.723Z,710.9167
2023-04-16T09:42:00.613Z,708.9167
2023-04-16T09:43:05.018Z,709.1667
2023-04-16T09:44:08.918Z,710.2500
2023-04-16T09:45:12.791Z,714.6667
2023-04-16T09:46:16.704Z,711.5000
2023-04-16T09:47:20.598Z,710.8333
2023-04-16T09:48:24.476Z,711.7500
2023-04-16T09:49:28.407Z,710.8333
2023-04-16T09:50:32.315Z,711.9167
2023-04-16T09:51:36.220Z,714.7500
2023-04-16T09:52:40.341Z,717.4167
2023-04-16T09:53:44.220Z,712.9167
2023-04-16T09:54:48.116Z,713.0833
2023-04-16T09:55:52.248Z,712.0833
2023-04-16T09:56:56.161Z,716.3333
2023-04-16T09:58:00.084Z,718.0833
2023-04-16T09:59:04.006Z,717.4167
2023-04-16T10:00:07.926Z,719.8333
2023-04-16T10:01:12.006Z,717.1667
2023-04-16T10:02:16.560Z,718.5000
2023-04-16T10:03:20.657Z,719.0000
2023-04-16T10:04:24.572Z,718.7500
2023-04-16T10:05:28.525Z,721.8333
2023-04-16T10:06:32.407Z,718.6667
2023-04-16T10:07:36.528Z,719.4167
2023-04-16T10:08:40.408Z,716.6667
2023-04-16T10:09:44.272Z,719.6667
2023-04-16T10:10:48.153Z,717.6667
2023-04-16T10:11:52.051Z,717.7500
2023-04-16T10:12:56.188Z,717.9167
2023-04-16T10:14:00.172Z,718.5000
2023-04-16T10:15:04.311Z,721.7500
2023-04-16T10:16:08.201Z,718.3333
2023-04-16T10:17:12.117Z,721.6667
2023-04-16T10:18:16.008Z,720.8333
2023-04-16T10:19:19.929Z,722.2500
2023-04-16T10:20:23.823Z,720.6667
2023-04-16T10:21:27.740Z,722.2500
2023-04-16T10:22:31.614Z,716.0000
2023-04-16T10:23:35.508Z,721.6667
2023-04-16T10:24:39.417Z,719.5000
2023-04-16T10:25:43.545Z,719.0833
2023-04-16T10:26:47.428Z,722.5000
2023-04-16T10:27:51.560Z,723.1667
2023-04-16T10:28:55.456Z,723.2500
2023-04-16T10:29:59.342Z,721.8333
2023-04-16T10:31:03.281Z,721.5000
2023-04-16T10:32:07.159Z,718.8333
2023-04-16T10:33:11.093Z,721.4167
2023-04-16T10:34:14.964Z,720.8333
2023-04-16T10:35:18.870Z,723.0000
2023-04-16T10:36:22.779Z,724.0000
2023-04-16T10:37:26.976Z,725.2500
2023-04-16T10:38:30.880Z,726.2500
2023-04-16T10:39:34.805Z,725.7500
2023-04-16T10:40:38.725Z,724.9167
2023-04-16T10:41:42.628Z,723.5000
2023-04-16T10:42:46.535Z,724.7500
2023-04-16T10:43:50.450Z,724.5833
2023-04-16T10:44:54.342Z,725.2500
2023-04-16T10:45:58.482Z,726.9167
2023-04-16T10:47:02.418Z,726.5000
2023-04-16T10:48:06.350Z,729.1667
2023-04-16T10:49:10.319Z,730.8333
2023-04-16T10:50:14.545Z,728.5833
2023-04-16T10:51:18.466Z,729.5000
2023-04-16T10:52:22.393Z,733.4167
2023-04-16T10:53:26.269Z,732.5833
2023-04-16T10:54:30.143Z,729.8333
2023-04-16T10:55:34.025Z,729.5000
2023-04-16T10:56:37.908Z,729.1667
2023-04-16T10:57:41.787Z,732.7500
2023-04-16T10:58:45.673Z,732.4167
2023-04-16T10:59:49.902Z,733.4167
2023-04-16T11:00:53.810Z,730.6667
2023-04-16T11:01:57.798Z,729.5000
2023-04-16T11:03:01.768Z,729.0833
2023-04-16T11:04:05.793Z,731.5833
2023-04-16T11:05:09.755Z,729.8333
2023-04-16T11:06:13.676Z,730.3333
2023-04-16T11:07:17.568Z,731.3333
2023-04-16T11:08:21.440Z,729.5000
2023-04-16T11:09:25.347Z,727.7500
2023-04-16T11:10:29.459Z,730.2500
2023-04-16T11:11:33.375Z,731.4167
2023-04-16T11:12:37.399Z,734.1667
2023-04-16T11:13:43.133Z,735.5833
2023-04-16T11:14:42.124Z,731.1818
2023-04-16T11:15:46.274Z,736.6667
2023-04-16T11:16:50.159Z,740.9167
2023-04-16T11:17:54.152Z,736.5000
2023-04-16T11:18:58.027Z,734.6667
2023-04-16T11:20:02.136Z,736.0000
2023-04-16T11:21:06.042Z,737.8333
2023-04-16T11:22:09.960Z,739.1667
2023-04-16T11:23:10.310Z,736.6364
2023-04-16T11:24:14.254Z,739.4167
2023-04-16T11:25:18.135Z,738.5000
2023-04-16T11:26:22.016Z,736.5833
2023-04-16T11:27:25.915Z,735.8333
2023-04-16T11:28:29.801Z,733.0000
2023-04-16T11:29:33.689Z,731.7500
2023-04-16T11:30:37.584Z,731.1667
2023-04-16T11:31:41.495Z,733.6667
2023-04-16T11:32:45.419Z,733.2500
2023-04-16T11:33:49.276Z,731.8333
2023-04-16T11:34:53.387Z,732.0000
2023-04-16T11:35:57.279Z,736.1667
2023-04-16T11:37:01.169Z,735.6667
2023-04-16T11:38:05.317Z,731.5000
2023-04-16T11:39:09.323Z,732.1667
2023-04-16T11:40:13.624Z,730.9167
2023-04-16T11:41:17.480Z,729.5833
2023-04-16T11:42:21.613Z,733.5000
2023-04-16T11:43:25.504Z,734.3333
2023-04-16T11:44:29.386Z,732.4167
2023-04-16T11:45:33.282Z,727.9167
2023-04-16T11:46:37.196Z,728.5000
2023-04-16T11:47:41.123Z,730.0833
2023-04-16T11:48:45.045Z,731.3333
2023-04-16T11:49:48.953Z,733.4167
2023-04-16T11:50:52.826Z,733.3333
2023-04-16T11:51:56.742Z,729.4167
2023-04-16T11:53:00.829Z,727.5833
2023-04-16T11:54:04.733Z,729.2500
2023-04-16T11:55:08.845Z,731.3333
2023-04-16T11:56:12.743Z,727.6667
2023-04-16T11:57:16.652Z,733.0000
2023-04-16T11:58:20.541Z,729.6667
2023-04-16T11:59:21.384Z,729.4545
2023-04-16T12:00:25.270Z,732.0833
2023-04-16T12:01:29.178Z,732.1667
2023-04-16T12:02:33.148Z,731.0000
2023-04-16T12:03:37.339Z,728.8333
2023-04-16T12:04:41.485Z,730.9167
2023-04-16T12:05:45.387Z,730.9167
2023-04-16T12:06:49.293Z,729.3333
2023-04-16T12:07:53.478Z,731.7500
2023-04-16T12:08:57.366Z,729.8333
2023-04-16T12:10:01.276Z,734.0833
2023-04-16T12:11:05.174Z,734.6667
2023-04-16T12:12:09.319Z,728.7500
2023-04-16T12:13:13.218Z,731.1667
2023-04-16T12:14:17.121Z,731.0833
2023-04-16T12:15:21.249Z,728.4167
2023-04-16T12:16:25.157Z,733.9167
2023-04-16T12:17:29.084Z,730.8333
2023-04-16T12:18:32.935Z,727.8333
2023-04-16T12:19:36.842Z,729.9167
2023-04-16T12:20:40.723Z,730.8333
2023-04-16T12:21:44.604Z,735.5000
2023-04-16T12:22:48.751Z,733.4167
2023-04-16T12:23:52.627Z,728.0833
2023-04-16T12:24:56.757Z,731.1667
2023-04-16T12:26:00.646Z,737.2500
2023-04-16T12:27:04.552Z,734.2500
2023-04-16T12:28:08.421Z,728.3333
2023-04-16T12:29:12.313Z,737.9167
2023-04-16T12:30:16.432Z,732.6667